KARV/ARV METAR and TAF weather

Enter ICAO airport designator
Station Type Date Time Source
KARV METAR 2021/04/17 01:35 UTC NOAA

KARV 170135Z AUTO 01003KT 10SM CLR 04/M06 A3001 RMK AO2 T00401056


Station Type Date Time Source
KARV Decoded METAR 2021/04/17 01:35 UTC NOAA

Minocqua/Woodruff, Lakeland Airport/Noble F. Lee Memorial Field, WI, United States (KARV) 45-56N 089-44W
Apr 16, 2021 - 09:35 PM EDT / 2021.04.17 0135 UTC
Wind: from the N (010 degrees) at 3 MPH (3 KT):0
Visibility: 10 mile(s):0
Sky conditions: clear
Temperature: 39.2 F (4.0 C)
Dew Point: 21.9 F (-5.6 C)
Relative Humidity: 49%
Pressure (altimeter): 30.01 in. Hg (1016 hPa)
ob: KARV 170135Z AUTO 01003KT 10SM CLR 04/M06 A3001 RMK AO2 T00401056
cycle: 1

Station Type Date Time Source
KARV TAF UTC NOAA

Error!

Example: see airport list